Time;durP1;ratioP1;P1;durP2;ratioP2;P2;SDS_P1;SDS_P2;PMS_P1;PMS_P2;Temp;Humidity;BMP_temperature;BMP_pressure;BME280_temperature;BME280_humidity;BME280_pressure;Samples;Min_cycle;Max_cycle;Signal;HPM_P1;HPM_P2
2021/09/05 00:01:35;;;;;;;9.70;6.40;;;;;;;11.24;60.96;100839.82;110098;1232;109184;-74
2021/09/05 00:05:41;;;;;;;9.20;6.10;;;;;;;11.22;60.98;100840.21;109841;1228;136966;-75
2021/09/05 00:09:46;;;;;;;10.40;6.50;;;;;;;11.18;60.98;100842.91;109669;1230;137381;-75
2021/09/05 00:17:18;;;;;;;8.70;5.40;;;;;;;11.05;60.96;100840.47;111367;1221;657121;-74
2021/09/05 00:21:52;;;;;;;10.00;5.90;;;;;;;10.94;61.14;100843.85;112158;1204;137109;-74
2021/09/05 00:25:36;;;;;;;7.20;5.20;;;;;;;10.94;61.42;100844.90;112142;1215;93913;-75
2021/09/05 00:42:33;;;;;;;7.70;5.40;;;;;;;10.81;61.57;100856.17;112313;1209;93976;-75
2021/09/05 00:46:42;;;;;;;8.30;5.20;;;;;;;10.80;61.53;100858.11;112012;1212;137056;-74
2021/09/05 00:50:50;;;;;;;8.20;5.00;;;;;;;10.78;61.66;100860.25;111909;1212;107163;-75
2021/09/05 01:08:16;;;;;;;7.80;5.20;;;;;;;10.65;61.71;100870.80;110301;1226;94145;-74
2021/09/05 01:12:22;;;;;;;8.10;5.50;;;;;;;10.63;61.99;100871.38;109628;1232;136589;-75
2021/09/05 01:20:09;;;;;;;7.40;4.00;;;;;;;10.53;62.02;100873.67;109818;1235;109370;-75
2021/09/05 01:23:54;;;;;;;8.30;4.90;;;;;;;10.49;62.12;100875.33;110052;1232;137743;-74
2021/09/05 01:28:05;;;;;;;6.90;4.60;;;;;;;10.48;62.32;100879.02;110273;1231;95637;-75
2021/09/05 01:32:26;;;;;;;9.10;5.40;;;;;;;10.47;62.45;100883.92;110266;1232;110174;-75
2021/09/05 01:40:50;;;;;;;8.00;5.10;;;;;;;10.32;62.60;100894.66;110044;1231;108554;-76
2021/09/05 01:49:04;;;;;;;10.70;5.70;;;;;;;10.27;62.81;100895.27;110189;1230;137027;-74
2021/09/05 01:53:08;;;;;;;10.10;5.50;;;;;;;10.21;63.00;100905.79;110399;1230;110326;-75
2021/09/05 01:57:32;;;;;;;8.90;5.40;;;;;;;10.15;63.23;100908.66;110544;1229;107879;-74
2021/09/05 02:01:37;;;;;;;7.90;5.00;;;;;;;10.15;63.26;100915.63;110332;1230;137790;-75
2021/09/05 02:05:40;;;;;;;7.00;4.90;;;;;;;10.17;63.41;100913.68;110588;1224;94952;-75
2021/09/05 02:10:15;;;;;;;9.00;5.70;;;;;;;10.18;63.52;100920.10;110336;1231;95089;-74
2021/09/05 02:18:01;;;;;;;9.10;5.50;;;;;;;10.12;63.56;100926.99;110397;1231;106175;-76
2021/09/05 02:22:09;;;;;;;6.70;4.90;;;;;;;10.11;63.50;100928.41;110023;1233;106107;-77
2021/09/05 02:26:13;;;;;;;7.60;5.10;;;;;;;10.07;63.92;100935.45;110113;1233;137207;-75
2021/09/05 02:34:37;;;;;;;7.50;5.00;;;;;;;10.03;64.00;100934.81;110790;1225;109176;-74
2021/09/05 02:38:45;;;;;;;9.90;5.20;;;;;;;10.05;63.83;100935.98;110437;1229;137028;-76
2021/09/05 02:42:53;;;;;;;9.20;5.30;;;;;;;10.04;63.86;100944.16;110010;1228;109384;-75
2021/09/05 02:51:35;;;;;;;7.70;5.20;;;;;;;9.92;63.93;100946.48;111428;1220;636162;-76
2021/09/05 02:55:43;;;;;;;12.50;9.30;;;;;;;9.85;64.14;100948.33;112200;1212;93888;-75
2021/09/05 02:59:54;;;;;;;9.20;6.60;;;;;;;9.84;64.21;100951.31;112142;1206;93881;-75
2021/09/05 03:04:03;;;;;;;8.00;5.30;;;;;;;9.80;64.31;100954.00;111738;1218;136334;-75
2021/09/05 03:12:23;;;;;;;9.10;5.50;;;;;;;9.77;64.54;100956.66;111512;1220;636037;-76
2021/09/05 03:20:42;;;;;;;;;;;;;;;;;;;;;
2021/09/05 03:24:52;;;;;;;7.60;5.00;;;;;;;9.61;64.98;100964.73;112192;1206;107996;-74
2021/09/05 03:33:14;;;;;;;8.80;5.90;;;;;;;9.49;65.27;100969.96;111516;1219;107548;-76
2021/09/05 03:37:31;;;;;;;8.00;5.40;;;;;;;9.43;65.55;100974.94;111377;1223;93961;-74
2021/09/05 03:50:51;;;;;;;17.40;10.60;;;;;;;9.41;65.67;100981.73;110287;1231;106202;-74
2021/09/05 03:59:03;;;;;;;11.80;6.40;;;;;;;9.32;66.11;100983.59;110100;1232;95109;-75
2021/09/05 04:11:19;;;;;;;9.30;6.20;;;;;;;9.33;66.35;100999.20;110067;1232;108496;-74
2021/09/05 04:23:59;;;;;;;9.30;6.60;;;;;;;10.49;65.88;101017.20;112067;1208;93999;-75
2021/09/05 04:28:06;;;;;;;8.90;6.00;;;;;;;12.32;64.06;101012.94;111719;1219;107148;-76
2021/09/05 04:32:13;;;;;;;9.50;5.30;;;;;;;13.71;62.01;101013.16;111241;1224;137096;-75
2021/09/05 04:36:03;;;;;;;7.30;4.70;;;;;;;15.48;58.96;101006.56;111275;1224;108425;-76
2021/09/05 04:40:11;;;;;;;7.90;5.30;;;;;;;17.00;55.89;101007.83;111056;1221;93910;-74
2021/09/05 04:44:10;;;;;;;;;;;;;;;;;;;;;
2021/09/05 04:48:18;;;;;;;8.00;4.80;;;;;;;20.31;50.14;101009.73;110933;1221;108067;-75
2021/09/05 04:52:39;;;;;;;8.50;4.70;;;;;;;22.15;46.94;101009.23;110233;1232;106200;-75
2021/09/05 04:55:23;;;;;;;;;;;;;;;;;;;;;
2021/09/05 04:58:42;;;;;;;;;;;;;;;;;;;;;
2021/09/05 05:02:23;;;;;;;;;;;;;;;;;;;;;
2021/09/05 05:05:44;;;;;;;5.90;3.80;;;;;;;27.23;37.87;101004.41;112428;1202;93868;-75
2021/09/05 05:09:26;;;;;;;6.40;3.80;;;;;;;28.29;36.04;101006.24;112402;1207;136226;-75
2021/09/05 05:12:31;;;;;;;5.50;3.90;;;;;;;29.65;34.21;101009.61;112309;1211;107268;-75
2021/09/05 05:16:28;;;;;;;5.30;3.40;;;;;;;30.76;32.58;101006.44;112583;1198;108555;-76
2021/09/05 05:20:06;;;;;;;;;;;;;;;;;;;;;
2021/09/05 05:23:26;;;;;;;4.50;3.60;;;;;;;32.71;29.52;101004.73;112696;1197;94158;-75
2021/09/05 05:26:36;;;;;;;4.50;3.00;;;;;;;33.53;28.18;101004.11;112434;1207;136921;-76
2021/09/05 05:29:30;;;;;;;4.50;3.10;;;;;;;34.20;26.90;101008.95;112488;1207;97600;-75
2021/09/05 05:32:47;;;;;;;4.00;3.10;;;;;;;34.74;26.02;101012.38;112424;1201;136653;-75
2021/09/05 05:35:56;;;;;;;3.20;2.70;;;;;;;35.22;25.15;101010.66;112480;1207;94947;-75
2021/09/05 05:38:57;;;;;;;3.10;2.50;;;;;;;35.79;24.11;101011.69;112432;1201;136663;-75
2021/09/05 05:42:26;;;;;;;3.60;2.80;;;;;;;36.15;23.38;101014.91;112540;1206;99844;-75
2021/09/05 05:45:20;;;;;;;4.70;3.00;;;;;;;36.67;22.80;101011.42;112421;1200;136798;-74
2021/09/05 05:49:12;;;;;;;2.80;2.40;;;;;;;37.21;21.96;101014.34;112528;1203;98970;-74
2021/09/05 05:52:19;;;;;;;3.30;2.50;;;;;;;37.55;21.28;101014.67;112850;1204;94824;-75
2021/09/05 05:55:16;;;;;;;3.40;3.00;;;;;;;38.00;20.94;101019.48;112840;1205;94906;-75
2021/09/05 05:58:05;;;;;;;3.50;2.80;;;;;;;38.50;20.24;101022.46;112704;1204;136688;-75
2021/09/05 06:00:53;;;;;;;3.60;2.40;;;;;;;38.92;19.76;101023.60;112865;1205;97484;-75
2021/09/05 06:04:11;;;;;;;3.60;2.70;;;;;;;39.30;19.31;101023.35;112717;1208;136352;-75
2021/09/05 06:07:30;;;;;;;2.40;2.20;;;;;;;39.65;18.77;101024.85;112826;1205;94852;-75
2021/09/05 06:10:20;;;;;;;3.10;2.10;;;;;;;40.07;18.34;101030.41;112779;1200;136518;-75
2021/09/05 06:13:11;;;;;;;3.10;2.40;;;;;;;40.49;17.87;101034.48;112854;1205;99767;-75
2021/09/05 06:16:19;;;;;;;2.80;2.50;;;;;;;40.82;17.66;101038.71;112685;1198;136699;-75
2021/09/05 06:20:17;;;;;;;2.40;2.20;;;;;;;41.23;17.10;101040.23;112646;1205;99501;-75
2021/09/05 06:23:52;;;;;;;2.60;2.10;;;;;;;41.80;16.50;101038.09;112649;1205;95353;-75
2021/09/05 06:26:44;;;;;;;2.70;1.90;;;;;;;41.93;16.10;101040.75;112602;1197;136719;-75
2021/09/05 06:29:33;;;;;;;2.50;2.10;;;;;;;42.08;16.01;101047.60;112897;1199;109042;-75
2021/09/05 06:32:31;;;;;;;2.20;1.90;;;;;;;42.11;15.74;101047.34;112872;1205;98587;-75
2021/09/05 06:35:42;;;;;;;2.80;2.60;;;;;;;41.85;15.42;101047.47;112889;1206;98814;-76
2021/09/05 06:38:30;;;;;;;3.50;3.20;;;;;;;41.94;15.41;101052.51;112865;1205;94804;-74
2021/09/05 06:41:25;;;;;;;3.90;2.40;;;;;;;42.11;15.19;101055.80;112778;1198;136375;-75
2021/09/05 06:44:16;;;;;;;3.10;1.80;;;;;;;42.26;15.07;101056.44;112877;1198;99935;-75
2021/09/05 06:47:04;;;;;;;2.60;1.70;;;;;;;42.77;14.91;101058.35;112783;1198;136480;-76
2021/09/05 06:49:55;;;;;;;2.00;1.60;;;;;;;43.26;14.57;101060.70;112873;1205;98758;-76
2021/09/05 06:52:55;;;;;;;4.40;3.50;;;;;;;43.57;14.39;101065.49;112759;1196;136458;-75
2021/09/05 06:55:55;;;;;;;2.20;1.80;;;;;;;43.81;14.10;101064.78;112847;1205;94864;-75
2021/09/05 06:58:45;;;;;;;1.90;1.50;;;;;;;43.80;13.71;101070.38;112714;1204;136420;-74
2021/09/05 07:01:35;;;;;;;2.60;2.00;;;;;;;44.01;13.72;101068.59;112887;1203;98770;-75
2021/09/05 07:04:33;;;;;;;2.90;1.70;;;;;;;44.45;13.61;101070.66;112730;1204;136473;-75
2021/09/05 07:07:29;;;;;;;2.20;1.70;;;;;;;44.87;13.23;101069.75;112764;1205;94852;-75
2021/09/05 07:10:19;;;;;;;1.70;1.50;;;;;;;45.06;12.95;101079.40;112720;1205;136576;-73
2021/09/05 07:13:14;;;;;;;2.80;1.50;;;;;;;45.04;12.94;101083.45;112805;1205;99878;-76
2021/09/05 07:16:06;;;;;;;3.80;2.50;;;;;;;45.12;12.86;101082.34;112726;1199;136428;-78
2021/09/05 07:18:54;;;;;;;2.90;1.90;;;;;;;45.20;12.71;101085.13;112771;1205;99813;-79
2021/09/05 07:21:42;;;;;;;1.60;1.30;;;;;;;45.32;12.65;101086.71;112741;1198;136452;-73
2021/09/05 07:24:30;;;;;;;1.90;1.30;;;;;;;45.44;12.63;101088.66;112838;1205;94910;-76
2021/09/05 07:27:18;;;;;;;1.40;1.30;;;;;;;45.47;12.31;101090.23;112755;1205;136782;-75
2021/09/05 07:30:08;;;;;;;1.70;1.40;;;;;;;45.46;12.25;101093.33;112890;1196;97540;-77
2021/09/05 07:32:59;;;;;;;1.80;1.40;;;;;;;45.40;12.07;101097.65;112729;1205;137237;-75
2021/09/05 07:35:47;;;;;;;1.30;1.20;;;;;;;45.19;12.04;101093.70;112727;1200;94829;-75
2021/09/05 07:38:37;;;;;;;1.60;1.20;;;;;;;44.80;11.65;101098.94;112863;1200;94818;-73
2021/09/05 07:41:24;;;;;;;1.50;1.00;;;;;;;44.55;11.73;101097.57;112780;1204;136242;-75
2021/09/05 07:44:22;;;;;;;2.20;1.50;;;;;;;44.59;11.98;101100.69;112904;1205;97658;-75
2021/09/05 07:47:12;;;;;;;1.50;1.00;;;;;;;44.68;11.60;101105.77;112695;1200;136530;-75
2021/09/05 07:50:09;;;;;;;1.00;0.90;;;;;;;44.55;11.58;101108.77;112692;1199;95012;-75
2021/09/05 07:52:57;;;;;;;1.30;1.20;;;;;;;44.45;11.53;101109.71;112638;1205;136633;-76
2021/09/05 07:55:48;;;;;;;1.20;1.10;;;;;;;44.35;11.23;101113.79;112790;1204;100839;-75
2021/09/05 07:58:36;;;;;;;1.30;1.10;;;;;;;44.28;11.28;101118.02;112726;1198;136688;-76
2021/09/05 08:01:25;;;;;;;2.70;1.20;;;;;;;44.18;11.22;101122.10;112820;1204;98842;-76
2021/09/05 08:04:13;;;;;;;1.30;1.00;;;;;;;43.96;11.25;101125.08;112724;1204;136738;-75
2021/09/05 08:07:03;;;;;;;2.20;1.00;;;;;;;43.63;11.34;101127.66;112828;1204;95279;-75
2021/09/05 08:09:51;;;;;;;1.00;0.90;;;;;;;43.40;11.52;101128.80;112764;1205;137028;-76
2021/09/05 08:12:40;;;;;;;1.80;0.90;;;;;;;43.36;11.61;101127.02;112789;1205;97620;-76
2021/09/05 08:15:33;;;;;;;1.40;1.00;;;;;;;43.29;11.41;101130.00;112777;1196;136772;-75
2021/09/05 08:18:23;;;;;;;1.40;1.10;;;;;;;43.23;11.23;101127.33;112843;1205;94819;-78
2021/09/05 08:21:11;;;;;;;1.40;1.10;;;;;;;43.16;11.30;101130.49;112735;1205;136865;-75
2021/09/05 08:23:59;;;;;;;0.80;0.80;;;;;;;42.99;11.40;101131.25;112821;1205;100789;-75
2021/09/05 08:26:47;;;;;;;1.30;0.90;;;;;;;42.79;11.29;101130.98;112887;1204;98772;-76
2021/09/05 08:29:44;;;;;;;1.70;1.10;;;;;;;42.60;11.31;101132.20;112726;1205;136486;-73
2021/09/05 08:32:33;;;;;;;1.20;0.70;;;;;;;42.42;11.26;101134.39;112856;1200;94947;-75
2021/09/05 08:35:21;;;;;;;1.00;0.90;;;;;;;42.09;11.53;101133.96;112711;1204;136671;-75
2021/09/05 08:38:09;;;;;;;1.00;0.80;;;;;;;41.89;11.68;101134.44;112742;1205;101324;-77
2021/09/05 08:40:58;;;;;;;1.00;0.80;;;;;;;41.77;11.42;101137.19;112720;1205;137000;-75
2021/09/05 08:43:45;;;;;;;0.90;0.80;;;;;;;41.75;11.62;101142.99;112692;1205;98758;-75
2021/09/05 08:46:33;;;;;;;16.60;14.90;;;;;;;41.58;11.72;101146.83;112723;1204;137048;-75
2021/09/05 08:49:37;;;;;;;1.80;1.60;;;;;;;41.12;11.48;101143.14;112706;1199;94851;-75
2021/09/05 08:52:25;;;;;;;1.50;1.00;;;;;;;40.53;12.01;101141.73;112587;1204;136718;-75
2021/09/05 08:55:12;;;;;;;1.60;0.90;;;;;;;40.22;12.21;101142.66;112816;1203;97501;-76
2021/09/05 08:58:00;;;;;;;1.60;0.80;;;;;;;40.24;12.77;101143.11;112686;1205;136748;-75
2021/09/05 09:00:58;;;;;;;1.20;0.90;;;;;;;40.24;12.55;101144.55;112628;1199;94866;-75
2021/09/05 09:03:46;;;;;;;1.40;0.90;;;;;;;40.14;12.60;101144.48;112641;1205;136795;-74
2021/09/05 09:06:50;;;;;;;0.80;0.80;;;;;;;40.09;12.57;101145.91;112897;1205;100890;-75
2021/09/05 09:10:02;;;;;;;0.90;0.80;;;;;;;39.70;12.35;101145.67;112727;1204;136962;-75
2021/09/05 09:12:50;;;;;;;0.80;0.70;;;;;;;39.24;12.61;101146.64;112844;1196;100019;-74
2021/09/05 09:15:39;;;;;;;1.00;0.80;;;;;;;39.00;13.01;101146.56;112749;1196;137198;-75
2021/09/05 09:18:41;;;;;;;;;;;;;;;;;;;;;
2021/09/05 09:21:57;;;;;;;1.80;0.80;;;;;;;38.16;13.16;101145.20;112765;1196;136789;-75
2021/09/05 09:25:28;;;;;;;0.70;0.50;;;;;;;37.83;13.38;101150.52;112860;1204;98668;-75
2021/09/05 09:28:59;;;;;;;4.00;3.00;;;;;;;37.88;13.50;101153.14;112692;1196;136712;-75
2021/09/05 09:31:56;;;;;;;1.30;0.90;;;;;;;37.67;13.37;101148.90;112843;1198;96075;-75
2021/09/05 09:35:09;;;;;;;0.90;0.80;;;;;;;37.37;13.56;101142.39;112766;1200;136949;-76
2021/09/05 09:38:01;;;;;;;1.40;0.60;;;;;;;37.56;13.80;101142.05;112899;1203;100469;-74
2021/09/05 09:41:17;;;;;;;1.70;0.70;;;;;;;37.80;13.70;101140.20;112694;1205;136765;-76
2021/09/05 09:44:13;;;;;;;1.10;0.70;;;;;;;37.63;13.24;101142.04;112840;1196;99863;-74
2021/09/05 09:47:09;;;;;;;0.90;0.60;;;;;;;37.42;13.45;101138.48;112655;1205;136917;-75
2021/09/05 09:50:04;;;;;;;0.50;0.50;;;;;;;36.92;13.24;101136.70;112856;1204;94866;-76
2021/09/05 09:53:15;;;;;;;0.60;0.60;;;;;;;36.79;13.59;101138.20;112758;1200;136589;-74
2021/09/05 09:56:24;;;;;;;0.70;0.60;;;;;;;36.73;13.82;101137.73;112728;1205;98561;-75
2021/09/05 09:59:18;;;;;;;1.80;0.90;;;;;;;36.61;14.12;101136.17;112728;1204;137101;-75
2021/09/05 10:02:43;;;;;;;1.00;0.80;;;;;;;36.66;14.06;101135.35;112856;1204;96177;-76
2021/09/05 10:06:14;;;;;;;1.60;0.60;;;;;;;36.65;14.23;101128.83;112796;1204;136950;-75
2021/09/05 10:09:05;;;;;;;1.20;0.80;;;;;;;36.48;14.20;101128.27;112836;1205;102315;-75
2021/09/05 10:12:17;;;;;;;2.70;0.70;;;;;;;35.80;14.27;101131.68;112749;1204;137251;-74
2021/09/05 10:15:25;;;;;;;1.10;1.00;;;;;;;34.91;14.34;101130.35;112824;1198;99913;-75
2021/09/05 10:18:50;;;;;;;5.20;4.70;;;;;;;33.93;15.10;101130.40;112701;1204;136648;-76
2021/09/05 10:22:30;;;;;;;1.40;1.20;;;;;;;32.67;15.78;101135.11;112761;1205;96214;-75
2021/09/05 10:25:18;;;;;;;1.20;0.90;;;;;;;31.45;16.37;101142.48;112871;1204;110295;-76
2021/09/05 10:28:12;;;;;;;2.20;1.30;;;;;;;31.18;17.05;101141.33;112765;1198;106992;-75
2021/09/05 10:31:21;;;;;;;2.80;2.00;;;;;;;31.38;17.35;101147.73;112735;1204;136960;-74
2021/09/05 10:34:42;;;;;;;1.20;1.10;;;;;;;31.78;17.49;101143.05;112839;1196;96292;-75
2021/09/05 10:37:54;;;;;;;;;;;;;;;;;;;;;
2021/09/05 10:41:06;;;;;;;1.50;1.30;;;;;;;32.18;16.91;101143.77;112757;1200;110286;-75
2021/09/05 10:45:04;;;;;;;;;;;;;;;;;;;;;
2021/09/05 10:49:26;;;;;;;1.90;0.90;;;;;;;31.64;17.40;101145.11;112347;1208;137650;-75
2021/09/05 10:53:43;;;;;;;0.90;0.70;;;;;;;30.35;17.86;101146.50;112492;1200;96220;-75
2021/09/05 10:57:45;;;;;;;1.30;1.10;;;;;;;28.97;18.96;101149.02;112241;1211;96229;-75
2021/09/05 11:01:46;;;;;;;;;;;;;;;;;;;;;
2021/09/05 11:05:22;;;;;;;1.20;1.00;;;;;;;29.10;19.76;101147.75;112006;1212;107337;-76
2021/09/05 11:08:59;;;;;;;1.00;0.70;;;;;;;29.43;19.68;101148.70;111862;1210;137400;-75
2021/09/05 11:13:18;;;;;;;1.40;1.00;;;;;;;29.29;19.59;101148.21;111996;1217;96209;-75
2021/09/05 11:20:34;;;;;;;;;;;;;;;;;;;;;
2021/09/05 11:24:23;;;;;;;;;;;;;;;;;;;;;
2021/09/05 11:28:01;;;;;;;1.00;0.80;;;;;;;26.20;20.86;101161.75;111733;1216;137186;-77
2021/09/05 11:31:48;;;;;;;;;;;;;;;;;;;;;
2021/09/05 11:36:14;;;;;;;0.90;0.80;;;;;;;26.21;20.68;101160.75;111863;1219;96403;-75
2021/09/05 11:40:07;;;;;;;;;;;;;;;;;;;;;
2021/09/05 11:43:58;;;;;;;2.40;0.90;;;;;;;26.34;21.17;101157.86;112042;1206;137433;-74
2021/09/05 11:47:50;;;;;;;;;;;;;;;;;;;;;
2021/09/05 11:51:24;;;;;;;;;;;;;;;;;;;;;
2021/09/05 11:55:22;;;;;;;;;;;;;;;;;;;;;
2021/09/05 11:59:25;;;;;;;2.00;0.60;;;;;;;26.20;20.89;101159.02;112030;1215;110843;-75
2021/09/05 12:08:08;;;;;;;1.50;0.80;;;;;;;25.64;21.73;101156.90;111972;1217;108608;-75
2021/09/05 12:12:29;;;;;;;1.60;1.00;;;;;;;25.93;21.98;101149.72;111044;1221;96281;-75
2021/09/05 12:20:13;;;;;;;0.50;0.50;;;;;;;25.85;21.87;101144.33;111488;1213;110860;-76
2021/09/05 12:28:17;;;;;;;1.50;1.30;;;;;;;25.97;21.50;101143.50;110825;1226;137842;-76
2021/09/05 12:36:20;;;;;;;;;;;;;;;;;;;;;
2021/09/05 12:39:59;;;;;;;;;;;;;;;;;;;;;
2021/09/05 12:44:45;;;;;;;1.00;0.70;;;;;;;25.74;21.69;101128.36;110769;1225;105647;-75
2021/09/05 12:48:05;;;;;;;;;;;;;;;;;;;;;
2021/09/05 12:52:46;;;;;;;2.90;1.00;;;;;;;25.48;21.93;101125.80;111422;1221;137427;-76
2021/09/05 12:56:11;;;;;;;;;;;;;;;;;;;;;
2021/09/05 13:00:01;;;;;;;1.00;0.60;;;;;;;25.14;22.64;101124.07;111878;1217;137175;-75
2021/09/05 13:04:03;;;;;;;2.50;0.70;;;;;;;25.00;22.46;101126.56;111939;1212;139683;-76
2021/09/05 13:08:11;;;;;;;1.90;0.70;;;;;;;24.68;22.57;101125.14;112169;1212;107507;-75
2021/09/05 13:16:40;;;;;;;1.00;0.70;;;;;;;24.33;23.12;101130.01;111859;1217;137586;-75
2021/09/05 13:20:50;;;;;;;1.30;0.80;;;;;;;24.30;23.19;101123.14;111903;1216;110831;-75
2021/09/05 13:25:23;;;;;;;0.80;0.60;;;;;;;24.25;22.95;101124.70;111888;1218;107261;-75
2021/09/05 13:29:30;;;;;;;1.20;0.90;;;;;;;24.09;22.95;101125.38;111464;1215;137343;-75
2021/09/05 13:32:53;;;;;;;0.90;0.70;;;;;;;23.97;23.30;101124.64;110690;1227;96343;-76
2021/09/05 13:36:51;;;;;;;;;;;;;;;;;;;;;
2021/09/05 13:44:54;;;;;;;;;;;;;;;;;;;;;
2021/09/05 13:48:35;;;;;;;2.90;1.50;;;;;;;23.26;23.39;101127.33;111985;1216;136608;-74
2021/09/05 13:52:36;;;;;;;1.00;0.90;;;;;;;23.08;23.85;101130.94;112122;1215;93866;-75
2021/09/05 13:56:09;;;;;;;0.90;0.80;;;;;;;22.89;24.25;101126.08;112141;1216;108202;-75
2021/09/05 14:00:18;;;;;;;0.60;0.50;;;;;;;22.64;24.33;101132.39;111780;1218;136833;-75
2021/09/05 14:04:10;;;;;;;1.00;0.70;;;;;;;22.47;24.76;101132.31;111140;1224;108521;-74
2021/09/05 14:13:00;;;;;;;0.80;0.80;;;;;;;22.20;25.23;101128.59;111478;1216;635574;-74
2021/09/05 14:17:02;;;;;;;1.80;1.30;;;;;;;22.00;25.34;101127.11;112619;1206;93871;-75
2021/09/05 14:21:22;;;;;;;;;;;;;;;;;;;;;
2021/09/05 14:25:19;;;;;;;1.60;1.20;;;;;;;21.67;25.87;101125.32;112123;1206;136295;-75
2021/09/05 14:58:22;;;;;;;1.00;0.80;;;;;;;20.74;26.66;101120.23;111296;1223;96629;-75
2021/09/05 15:14:24;;;;;;;1.80;1.10;;;;;;;19.92;27.22;101120.80;111824;1217;137276;-76
2021/09/05 15:18:59;;;;;;;2.70;1.70;;;;;;;19.64;27.57;101127.11;111489;1219;95041;-76
2021/09/05 15:55:35;;;;;;;1.30;0.90;;;;;;;18.40;29.87;101127.89;110549;1229;109332;-75
2021/09/05 16:53:34;;;;;;;1.20;1.10;;;;;;;16.77;33.76;101151.89;110059;1232;137717;-74
2021/09/05 16:56:57;;;;;;;4.90;2.20;;;;;;;16.59;33.88;101152.29;109908;1234;108532;-75
2021/09/05 17:01:30;;;;;;;2.60;1.70;;;;;;;16.43;34.00;101157.34;110091;1230;137107;-75
2021/09/05 17:05:17;;;;;;;2.00;1.50;;;;;;;16.29;34.61;101157.90;110258;1228;137275;-75
2021/09/05 17:09:23;;;;;;;1.80;1.30;;;;;;;16.16;34.97;101160.56;110527;1228;108712;-74
2021/09/05 17:13:29;;;;;;;2.00;1.00;;;;;;;16.04;34.95;101169.65;110203;1231;137159;-75
2021/09/05 17:25:47;;;;;;;10.30;6.10;;;;;;;15.56;36.06;101180.98;111961;1209;93902;-75
2021/09/05 17:30:03;;;;;;;4.10;2.60;;;;;;;15.44;36.24;101178.96;111763;1210;136726;-76
2021/09/05 17:37:19;;;;;;;3.30;1.60;;;;;;;15.24;36.92;101182.33;110799;1219;635957;-75
2021/09/05 17:45:51;;;;;;;2.90;1.60;;;;;;;14.99;37.83;101190.09;112116;1208;93919;-75
2021/09/05 17:49:15;;;;;;;3.90;1.50;;;;;;;14.87;38.18;101194.88;111867;1217;136366;-75
2021/09/05 17:53:23;;;;;;;2.30;1.40;;;;;;;14.76;38.44;101197.55;112000;1209;136903;-76
2021/09/05 17:57:32;;;;;;;9.20;6.10;;;;;;;14.65;38.84;101201.23;111654;1215;107668;-76
2021/09/05 18:05:55;;;;;;;;;;;;;;;;;;;;;
2021/09/05 18:09:51;;;;;;;;;;;;;;;;;;;;;
2021/09/05 18:13:48;;;;;;;;;;;;;;;;;;;;;
2021/09/05 18:18:20;;;;;;;3.40;2.10;;;;;;;14.16;40.78;101215.04;109909;1226;137232;-75
2021/09/05 18:26:35;;;;;;;5.70;2.70;;;;;;;14.02;41.48;101219.38;112305;1210;94134;-75
2021/09/05 18:30:44;;;;;;;5.80;3.20;;;;;;;13.96;41.82;101223.91;112146;1205;136558;-75
2021/09/05 18:34:53;;;;;;;4.30;2.80;;;;;;;13.89;42.15;101222.02;112101;1209;106999;-75
2021/09/05 18:39:27;;;;;;;6.80;4.20;;;;;;;13.82;42.43;101231.30;111890;1212;107456;-75
2021/09/05 18:43:10;;;;;;;12.00;6.50;;;;;;;13.75;42.70;101227.32;111782;1219;136843;-75
2021/09/05 18:56:12;;;;;;;14.00;7.30;;;;;;;13.64;42.84;101227.31;109919;1233;137208;-75
2021/09/05 19:00:04;;;;;;;;;;;;;;;;;;;;;
2021/09/05 19:08:29;;;;;;;7.10;4.20;;;;;;;13.49;43.02;101220.24;109435;1233;137130;-75
2021/09/05 19:12:20;;;;;;;4.40;3.40;;;;;;;13.45;43.26;101218.23;109606;1231;95956;-75
2021/09/05 19:16:26;;;;;;;5.80;3.60;;;;;;;13.42;43.29;101219.05;109710;1234;136837;-76
2021/09/05 19:24:13;;;;;;;5.00;3.50;;;;;;;13.36;43.52;101220.11;111452;1220;636060;-75
2021/09/05 19:27:57;;;;;;;3.50;3.00;;;;;;;13.28;43.61;101220.65;112214;1205;136420;-76
2021/09/05 19:32:30;;;;;;;5.40;3.50;;;;;;;13.23;43.76;101227.76;112076;1207;136717;-75
2021/09/05 19:36:17;;;;;;;6.10;2.90;;;;;;;13.18;43.87;101224.92;112191;1213;107061;-75
2021/09/05 19:40:25;;;;;;;4.90;2.90;;;;;;;13.13;44.04;101229.75;111991;1211;107280;-77
2021/09/05 19:44:33;;;;;;;5.90;3.10;;;;;;;13.07;44.01;101230.97;111583;1221;137086;-75
2021/09/05 19:48:31;;;;;;;;;;;;;;;;;;;;;
2021/09/05 19:53:13;;;;;;;5.60;3.70;;;;;;;12.94;44.59;101232.88;111240;1218;94890;-75
2021/09/05 19:57:18;;;;;;;7.00;3.30;;;;;;;12.87;44.59;101232.52;110720;1221;136912;-76
2021/09/05 20:01:08;;;;;;;4.10;2.60;;;;;;;12.80;44.60;101233.96;110774;1225;107824;-74
2021/09/05 20:05:14;;;;;;;3.40;2.30;;;;;;;12.74;44.60;101235.49;110693;1221;136950;-75
2021/09/05 20:29:49;;;;;;;4.00;2.10;;;;;;;12.43;44.64;101248.15;109553;1231;137328;-76
2021/09/05 20:45:33;;;;;;;2.90;2.30;;;;;;;12.29;45.02;101248.98;111622;1217;636720;-75
2021/09/05 20:49:42;;;;;;;3.30;1.80;;;;;;;12.20;45.33;101248.14;112235;1206;94015;-75
2021/09/05 20:58:00;;;;;;;3.40;2.10;;;;;;;12.08;45.74;101249.81;112008;1207;136803;-75
2021/09/05 21:02:35;;;;;;;2.90;2.20;;;;;;;12.04;45.90;101249.91;112075;1209;106283;-75
2021/09/05 21:34:55;;;;;;;4.10;2.90;;;;;;;11.82;47.11;101247.24;112043;1214;136818;-75
2021/09/05 21:39:03;;;;;;;4.80;3.20;;;;;;;11.80;47.24;101249.20;112020;1208;93994;-74
2021/09/05 21:43:13;;;;;;;6.10;3.50;;;;;;;11.75;47.24;101252.94;111786;1220;105876;-74
2021/09/05 21:47:46;;;;;;;6.70;3.60;;;;;;;11.70;49.02;101255.31;111118;1216;136946;-75
2021/09/05 22:07:21;;;;;;;;;;;;;;;;;;;;;
2021/09/05 22:11:32;;;;;;;6.00;3.00;;;;;;;11.41;49.34;101259.37;112300;1209;137328;-74
2021/09/05 22:16:05;;;;;;;5.00;3.20;;;;;;;11.40;49.28;101262.86;112276;1210;93854;-74
2021/09/05 22:23:58;;;;;;;6.80;3.40;;;;;;;11.35;49.77;101261.05;111857;1216;136833;-75
2021/09/05 22:56:28;;;;;;;5.60;3.10;;;;;;;11.08;49.88;101257.04;111210;1221;640932;-74
2021/09/05 23:00:37;;;;;;;5.40;3.10;;;;;;;11.01;49.99;101257.16;111988;1208;136791;-77
2021/09/05 23:04:46;;;;;;;9.90;4.50;;;;;;;10.97;50.27;101254.80;112080;1208;94178;-74
2021/09/05 23:08:55;;;;;;;7.20;3.70;;;;;;;10.92;50.39;101255.21;112139;1208;107273;-74
2021/09/05 23:13:02;;;;;;;5.30;3.30;;;;;;;10.87;50.56;101249.75;111857;1217;137004;-74
2021/09/05 23:21:56;;;;;;;4.60;2.90;;;;;;;10.81;50.75;101250.05;111531;1214;94043;-76
2021/09/05 23:26:01;;;;;;;4.60;2.90;;;;;;;10.77;50.86;101248.52;111050;1216;136682;-76
2021/09/05 23:38:19;;;;;;;3.80;2.80;;;;;;;10.72;50.93;101242.69;109899;1227;137222;-75
2021/09/05 23:42:24;;;;;;;4.20;3.00;;;;;;;10.71;51.04;101241.84;110135;1225;95208;-76
2021/09/05 23:54:36;;;;;;;4.90;3.20;;;;;;;10.66;51.35;101241.42;111548;1211;635631;-74
2021/09/05 23:58:45;;;;;;;4.80;2.90;;;;;;;10.62;51.23;101244.80;112563;1198;93991;-74
